Time;durP1;ratioP1;P1;durP2;ratioP2;P2;SDS_P1;SDS_P2;PMS_P1;PMS_P2;Temp;Humidity;BMP_temperature;BMP_pressure;BME280_temperature;BME280_humidity;BME280_pressure;Samples;Min_cycle;Max_cycle;Signal;HPM_P1;HPM_P2
2021/09/17 00:00:28;;;;;;;0.73;0.47;;;;;;;12.94;100.00;100704.38;5116246;27;20204;-72
2021/09/17 00:02:57;;;;;;;2.27;0.80;;;;;;;12.95;100.00;100703.25;5134648;27;20200;-71
2021/09/17 00:05:23;;;;;;;5.10;1.47;;;;;;;12.92;100.00;100685.50;5134372;27;20226;-71
2021/09/17 00:07:48;;;;;;;2.37;1.63;;;;;;;12.90;100.00;100730.84;5134688;27;20213;-72
2021/09/17 00:10:16;;;;;;;1.30;1.20;;;;;;;12.88;100.00;100703.75;5134744;27;20200;-71
2021/09/17 00:12:42;;;;;;;1.17;1.03;;;;;;;12.87;100.00;100682.91;5134553;27;20231;-72
2021/09/17 00:15:09;;;;;;;2.33;1.43;;;;;;;12.81;100.00;100689.69;5134083;27;20651;-72
2021/09/17 00:17:35;;;;;;;1.63;1.53;;;;;;;12.81;100.00;100703.41;5134391;27;20179;-72
2021/09/17 00:20:01;;;;;;;3.40;1.70;;;;;;;12.76;100.00;100714.53;5134293;27;20642;-72
2021/09/17 00:22:26;;;;;;;2.17;1.90;;;;;;;12.74;100.00;100708.56;5128566;27;20548;-72
2021/09/17 00:24:51;;;;;;;2.70;1.70;;;;;;;12.71;100.00;100709.97;5134065;27;20271;-72
2021/09/17 00:27:17;;;;;;;2.00;1.73;;;;;;;12.67;100.00;100709.00;5134230;27;20177;-72
2021/09/17 00:29:42;;;;;;;1.50;1.40;;;;;;;12.64;100.00;100711.59;5134665;27;20268;-72
2021/09/17 00:32:07;;;;;;;2.03;1.67;;;;;;;12.64;100.00;100714.31;5134245;27;20180;-72
2021/09/17 00:34:33;;;;;;;1.47;1.37;;;;;;;12.64;100.00;100708.84;5133976;27;20169;-72
2021/09/17 00:36:58;;;;;;;2.70;2.40;;;;;;;12.63;100.00;100709.97;5134091;27;20204;-72
2021/09/17 00:39:24;;;;;;;1.33;1.17;;;;;;;12.63;100.00;100727.22;5133958;27;20203;-72
2021/09/17 00:41:49;;;;;;;1.80;1.70;;;;;;;12.60;100.00;100707.88;5133868;27;20647;-72
2021/09/17 00:44:24;;;;;;;2.60;1.93;;;;;;;12.59;100.00;100709.00;5133787;27;20180;-72
2021/09/17 00:46:50;;;;;;;1.40;1.30;;;;;;;12.58;100.00;100710.91;5133898;27;20172;-72
2021/09/17 00:49:16;;;;;;;2.10;1.83;;;;;;;12.57;100.00;100714.78;5133715;27;20184;-72
2021/09/17 00:51:42;;;;;;;1.50;1.40;;;;;;;12.52;100.00;100718.47;5133567;27;20176;-72
2021/09/17 00:54:08;;;;;;;1.47;1.37;;;;;;;12.54;100.00;100714.59;5134050;27;20160;-71
2021/09/17 00:56:33;;;;;;;2.60;2.40;;;;;;;12.56;100.00;100718.63;5133608;27;20593;-72
2021/09/17 00:58:59;;;;;;;1.57;1.47;;;;;;;12.58;100.00;100701.88;5133582;27;20561;-72
2021/09/17 01:01:24;;;;;;;2.77;2.40;;;;;;;12.58;100.00;100710.91;5115154;27;20199;-72
2021/09/17 01:03:50;;;;;;;4.27;2.00;;;;;;;12.59;100.00;100720.78;5132642;27;20183;-72
2021/09/17 01:06:15;;;;;;;3.33;2.40;;;;;;;12.63;100.00;100716.25;5133074;27;20164;-72
2021/09/17 01:08:41;;;;;;;2.67;2.47;;;;;;;12.63;100.00;100726.41;5133807;27;20642;-72
2021/09/17 01:11:07;;;;;;;3.43;2.17;;;;;;;12.64;100.00;100719.81;5133291;27;20169;-72
2021/09/17 01:13:32;;;;;;;2.87;2.63;;;;;;;12.61;100.00;100717.72;5115040;27;20176;-72
2021/09/17 01:15:58;;;;;;;3.40;2.23;;;;;;;12.58;100.00;100716.38;5133421;27;20168;-72
2021/09/17 01:18:23;;;;;;;3.13;2.83;;;;;;;12.57;100.00;100714.78;5133246;27;20555;-72
2021/09/17 01:20:49;;;;;;;3.63;3.40;;;;;;;12.59;100.00;100718.03;5133119;27;20200;-72
2021/09/17 01:23:14;;;;;;;3.00;2.63;;;;;;;12.54;100.00;100734.59;5133171;27;20161;-72
2021/09/17 01:25:39;;;;;;;5.07;3.27;;;;;;;12.55;100.00;100716.22;5132858;27;20181;-72
2021/09/17 01:28:05;;;;;;;4.57;4.17;;;;;;;12.52;100.00;100710.25;5132956;27;20172;-72
2021/09/17 01:30:31;;;;;;;2.60;1.97;;;;;;;12.51;100.00;100744.28;5133042;27;20164;-72
2021/09/17 01:32:56;;;;;;;4.73;4.33;;;;;;;12.48;100.00;100723.00;5132913;27;20187;-72
2021/09/17 01:35:23;;;;;;;4.63;2.90;;;;;;;12.49;100.00;100715.56;5132673;27;20538;-72
2021/09/17 01:37:49;;;;;;;4.50;4.10;;;;;;;12.48;100.00;100720.25;5133159;27;20161;-72
2021/09/17 01:40:16;;;;;;;2.27;2.10;;;;;;;12.49;100.00;100745.72;5132649;27;20200;-72
2021/09/17 01:42:42;;;;;;;3.70;3.40;;;;;;;12.48;100.00;100723.00;5132820;27;20184;-72
2021/09/17 01:45:09;;;;;;;3.90;3.60;;;;;;;12.52;100.00;100721.22;5132606;27;20173;-72
2021/09/17 01:47:35;;;;;;;3.90;3.47;;;;;;;12.56;100.00;100737.03;5132634;27;20534;-72
2021/09/17 01:50:00;;;;;;;4.00;3.70;;;;;;;12.60;100.00;100738.03;5132530;27;20172;-72
2021/09/17 01:52:26;;;;;;;3.93;3.63;;;;;;;12.65;100.00;100713.19;5132271;27;20248;-72
2021/09/17 01:54:51;;;;;;;4.17;3.87;;;;;;;12.70;100.00;100722.06;5132551;27;20160;-72
2021/09/17 01:57:16;;;;;;;4.63;4.13;;;;;;;12.77;100.00;100724.38;5132314;27;20657;-72
2021/09/17 01:59:42;;;;;;;4.30;4.00;;;;;;;12.81;100.00;100731.63;5132243;27;20199;-72
2021/09/17 02:02:07;;;;;;;5.07;4.53;;;;;;;12.85;100.00;100737.25;5132751;27;20248;-72
2021/09/17 02:04:33;;;;;;;3.53;3.23;;;;;;;12.90;100.00;100739.06;5132052;27;20662;-72
2021/09/17 02:06:58;;;;;;;3.77;3.47;;;;;;;12.91;100.00;100743.44;5132257;27;20179;-72
2021/09/17 02:09:24;;;;;;;5.67;3.50;;;;;;;12.93;100.00;100738.44;5132225;27;20257;-72
2021/09/17 02:11:49;;;;;;;5.17;3.60;;;;;;;12.93;100.00;100738.44;5113711;27;20199;-72
2021/09/17 02:14:14;;;;;;;2.83;2.63;;;;;;;12.94;100.00;100742.78;5132160;27;20183;-72
2021/09/17 02:16:41;;;;;;;4.33;3.03;;;;;;;12.94;100.00;100729.88;5131815;27;20570;-72
2021/09/17 02:19:07;;;;;;;4.47;4.17;;;;;;;12.93;100.00;100736.50;5113734;27;20613;-72
2021/09/17 02:21:34;;;;;;;3.90;3.60;;;;;;;12.93;100.00;100730.19;5131830;27;20176;-72
2021/09/17 02:24:00;;;;;;;4.23;3.83;;;;;;;12.94;100.00;100731.81;5113238;27;20233;-72
2021/09/17 02:26:26;;;;;;;7.37;4.10;;;;;;;12.95;100.00;100730.69;5131950;27;20172;-72
2021/09/17 02:28:51;;;;;;;6.53;3.77;;;;;;;12.98;100.00;100724.53;5132007;27;20236;-72
2021/09/17 02:31:17;;;;;;;4.33;4.00;;;;;;;13.01;100.00;100730.19;5131755;27;20556;-72
2021/09/17 02:33:42;;;;;;;4.17;3.87;;;;;;;13.03;100.00;100713.44;5131525;27;20187;-72
2021/09/17 02:36:08;;;;;;;3.70;3.40;;;;;;;13.04;100.00;100729.56;5113173;27;20646;-72
2021/09/17 02:38:34;;;;;;;4.80;4.40;;;;;;;13.05;100.00;100714.72;5131715;27;20693;-72
2021/09/17 02:40:59;;;;;;;4.33;4.00;;;;;;;13.04;100.00;100723.28;5131527;27;20256;-72
2021/09/17 02:43:25;;;;;;;3.97;3.67;;;;;;;13.05;100.00;100724.91;5131603;27;20175;-72
2021/09/17 02:45:50;;;;;;;4.10;3.70;;;;;;;13.07;100.00;100726.19;5131564;27;20615;-72
2021/09/17 02:48:15;;;;;;;3.93;3.63;;;;;;;13.09;100.00;100726.66;5131569;27;20200;-72
2021/09/17 02:50:41;;;;;;;4.50;4.10;;;;;;;13.09;100.00;100721.19;5131030;27;20168;-72
2021/09/17 02:53:07;;;;;;;3.73;3.43;;;;;;;13.11;100.00;100729.09;5131648;27;20176;-72
2021/09/17 02:55:33;;;;;;;6.40;3.20;;;;;;;13.14;100.00;100727.63;5131521;28;20165;-72
2021/09/17 02:57:58;;;;;;;3.87;3.57;;;;;;;13.15;100.00;100721.81;5131438;28;20181;-72
2021/09/17 03:00:24;;;;;;;3.10;2.80;;;;;;;13.17;100.00;100732.50;5131403;28;20226;-72
2021/09/17 03:02:50;;;;;;;3.50;3.20;;;;;;;13.15;100.00;100721.81;5131605;28;20253;-72
2021/09/17 03:05:16;;;;;;;4.37;3.97;;;;;;;13.15;100.00;100721.00;5131227;28;20654;-72
2021/09/17 03:07:41;;;;;;;8.97;4.43;;;;;;;13.15;100.00;100719.06;5131570;28;20164;-72
2021/09/17 03:10:07;;;;;;;3.70;3.40;;;;;;;13.18;100.00;100715.75;5131270;27;20192;-72
2021/09/17 03:12:32;;;;;;;4.73;4.33;;;;;;;13.18;100.00;100717.66;5131214;28;20819;-72
2021/09/17 03:14:58;;;;;;;3.00;2.70;;;;;;;13.21;100.00;100722.53;5131236;28;20176;-72
2021/09/17 03:17:23;;;;;;;5.03;3.47;;;;;;;13.23;100.00;100712.03;5131378;28;20552;-72
2021/09/17 03:19:49;;;;;;;4.10;3.50;;;;;;;13.26;100.00;100714.94;5131184;28;20204;-72
2021/09/17 03:22:14;;;;;;;4.23;3.47;;;;;;;13.29;100.00;100707.97;5131173;28;20176;-72
2021/09/17 03:24:41;;;;;;;5.13;4.60;;;;;;;13.31;100.00;100703.81;5131293;28;20172;-72
2021/09/17 03:27:06;;;;;;;4.23;3.87;;;;;;;13.35;100.00;100713.00;5131612;27;20643;-72
2021/09/17 03:29:33;;;;;;;4.30;3.90;;;;;;;13.38;100.00;100706.84;5112152;27;20176;-72
2021/09/17 03:31:59;;;;;;;3.80;3.50;;;;;;;13.42;100.00;100712.50;5129161;27;20179;-72
2021/09/17 03:34:24;;;;;;;3.97;3.60;;;;;;;13.45;100.00;100716.53;5116450;27;20525;-72
2021/09/17 03:36:49;;;;;;;3.77;3.47;;;;;;;13.48;100.00;100710.41;5135011;27;20207;-72
2021/09/17 03:39:15;;;;;;;3.20;2.90;;;;;;;13.52;100.00;100716.84;5134913;27;20195;-72
2021/09/17 03:41:45;;;;;;;3.27;3.00;;;;;;;13.55;100.00;100719.75;5136535;27;20187;-72
2021/09/17 03:44:13;;;;;;;4.03;3.73;;;;;;;13.59;100.00;100707.00;5146623;27;20196;-72
2021/09/17 03:46:38;;;;;;;3.70;3.40;;;;;;;13.62;100.00;100717.34;5136181;27;20224;-72
2021/09/17 03:49:04;;;;;;;3.10;2.83;;;;;;;13.69;100.00;100712.16;5136045;27;20255;-72
2021/09/17 03:51:29;;;;;;;3.13;2.83;;;;;;;13.75;100.00;100712.00;5135150;27;20356;-72
2021/09/17 03:53:55;;;;;;;4.33;2.67;;;;;;;13.80;100.00;100700.84;5135019;27;20187;-72
2021/09/17 03:56:20;;;;;;;3.03;2.70;;;;;;;13.81;100.00;100697.75;5134931;27;20180;-72
2021/09/17 03:58:45;;;;;;;3.17;2.30;;;;;;;13.84;100.00;100710.81;5134877;27;20180;-71
2021/09/17 04:01:11;;;;;;;2.63;2.40;;;;;;;13.88;100.00;100694.50;5135055;27;20659;-72
2021/09/17 04:03:36;;;;;;;2.80;2.40;;;;;;;13.92;100.00;100698.22;5134715;27;20184;-72
2021/09/17 04:06:01;;;;;;;2.90;2.70;;;;;;;13.95;100.00;100706.59;5132615;27;20185;-72
2021/09/17 04:08:27;;;;;;;2.90;2.70;;;;;;;13.96;100.00;100704.66;5133748;27;20548;-73
2021/09/17 04:10:52;;;;;;;3.37;3.07;;;;;;;13.90;100.00;100705.97;5134520;27;20554;-72
2021/09/17 04:13:18;;;;;;;3.97;3.40;;;;;;;13.88;100.00;100708.22;5134368;27;20185;-72
2021/09/17 04:15:43;;;;;;;2.93;2.73;;;;;;;13.82;100.00;100831.19;5134533;27;20173;-71
2021/09/17 04:18:08;;;;;;;3.07;2.70;;;;;;;13.82;100.00;100693.06;5134504;27;20176;-72
2021/09/17 04:20:34;;;;;;;3.63;3.30;;;;;;;13.80;100.00;100693.41;5134465;27;20210;-72
2021/09/17 04:22:59;;;;;;;2.73;2.53;;;;;;;13.79;100.00;100699.22;5134487;27;20229;-72
2021/09/17 04:25:25;;;;;;;3.40;3.10;;;;;;;13.80;100.00;100704.38;5134090;27;20168;-73
2021/09/17 04:27:50;;;;;;;3.73;3.43;;;;;;;13.82;100.00;100709.53;5115817;27;20572;-72
2021/09/17 04:30:16;;;;;;;3.80;3.50;;;;;;;13.80;100.00;100712.63;5134306;27;20203;-72
2021/09/17 04:32:43;;;;;;;4.63;3.47;;;;;;;13.81;100.00;100707.94;5134267;27;20179;-73
2021/09/17 04:35:09;;;;;;;3.93;3.53;;;;;;;13.82;100.00;100709.53;5134050;27;20173;-73
2021/09/17 04:37:41;;;;;;;4.10;3.63;;;;;;;13.81;100.00;100718.91;5134008;27;20576;-72
2021/09/17 04:40:08;;;;;;;6.37;3.97;;;;;;;13.82;100.00;100720.53;5115592;27;20562;-72
2021/09/17 04:42:33;;;;;;;5.57;4.43;;;;;;;13.75;100.00;100725.72;5115814;27;20208;-73
2021/09/17 04:44:59;;;;;;;6.03;4.43;;;;;;;13.72;100.00;100726.34;5133830;27;20196;-72
2021/09/17 04:47:24;;;;;;;5.27;4.87;;;;;;;13.68;100.00;100731.69;5133991;27;20497;-73
2021/09/17 04:49:49;;;;;;;5.47;4.63;;;;;;;13.67;100.00;100730.09;5133856;27;20572;-72
2021/09/17 04:52:16;;;;;;;4.73;4.33;;;;;;;13.65;100.00;100735.09;5133470;27;20259;-72
2021/09/17 04:54:41;;;;;;;6.17;5.00;;;;;;;13.66;100.00;100739.47;5133605;27;20172;-72
2021/09/17 04:57:06;;;;;;;6.43;5.83;;;;;;;13.65;100.00;100751.56;5133619;27;20522;-72
2021/09/17 04:59:32;;;;;;;6.20;5.70;;;;;;;13.64;100.00;100744.47;5133817;27;20198;-72
2021/09/17 05:01:57;;;;;;;5.77;5.23;;;;;;;13.61;100.00;100751.41;5133500;27;20172;-72
2021/09/17 05:04:22;;;;;;;6.73;6.13;;;;;;;13.61;100.00;100747.88;5133281;27;20208;-72
2021/09/17 05:06:48;;;;;;;5.80;5.30;;;;;;;13.59;100.00;100750.09;5133548;27;20176;-72
2021/09/17 05:09:13;;;;;;;9.40;6.30;;;;;;;13.58;100.00;100745.75;5133405;27;20497;-72
2021/09/17 05:11:38;;;;;;;7.67;6.97;;;;;;;13.58;100.00;100743.81;5133392;27;20620;-72
2021/09/17 05:14:04;;;;;;;6.40;5.80;;;;;;;13.58;100.00;100743.00;5133188;27;20175;-72
2021/09/17 05:16:32;;;;;;;6.80;5.60;;;;;;;13.56;100.00;100757.06;5133281;27;20169;-72
2021/09/17 05:18:58;;;;;;;9.40;6.33;;;;;;;13.58;100.00;100752.03;5133272;27;20192;-72
2021/09/17 05:21:23;;;;;;;6.10;5.53;;;;;;;13.59;100.00;100753.66;5133062;27;20693;-72
2021/09/17 05:23:49;;;;;;;5.60;4.97;;;;;;;13.62;100.00;100765.97;5133007;27;20169;-72
2021/09/17 05:26:14;;;;;;;6.53;5.53;;;;;;;13.62;100.00;100754.97;5133334;27;20532;-72
2021/09/17 05:28:39;;;;;;;5.37;4.87;;;;;;;13.63;100.00;100757.41;5133363;27;20240;-72
2021/09/17 05:31:05;;;;;;;7.77;5.10;;;;;;;13.64;100.00;100760.94;5133318;27;20187;-72
2021/09/17 05:33:30;;;;;;;8.03;5.13;;;;;;;13.65;100.00;100770.78;5132930;27;20438;-73
2021/09/17 05:35:56;;;;;;;9.00;5.63;;;;;;;13.63;100.00;100773.88;5132690;27;20212;-73
2021/09/17 05:38:21;;;;;;;6.50;5.53;;;;;;;13.67;100.00;100772.06;5132841;27;20527;-72
2021/09/17 05:40:47;;;;;;;6.17;5.67;;;;;;;13.67;100.00;100796.78;5132824;27;20659;-72
2021/09/17 05:43:12;;;;;;;7.50;6.20;;;;;;;13.69;100.00;100772.56;5132815;27;20173;-71
2021/09/17 05:45:38;;;;;;;7.43;6.73;;;;;;;13.73;100.00;100789.19;5132528;27;20211;-72
2021/09/17 05:48:03;;;;;;;8.63;5.90;;;;;;;13.76;100.00;100783.06;5132597;27;20165;-71
2021/09/17 05:50:29;;;;;;;6.37;5.77;;;;;;;13.78;100.00;100788.22;5131971;27;20616;-72
2021/09/17 05:52:54;;;;;;;6.43;5.57;;;;;;;13.80;100.00;100781.28;5132546;27;20177;-71
2021/09/17 05:55:20;;;;;;;6.23;5.63;;;;;;;13.84;100.00;100792.41;5132495;27;20199;-72
2021/09/17 05:57:46;;;;;;;8.70;6.40;;;;;;;13.88;100.00;100790.63;5132572;27;20650;-71
2021/09/17 06:00:12;;;;;;;5.80;5.30;;;;;;;13.89;100.00;100784.84;5132435;27;20279;-73
2021/09/17 06:02:37;;;;;;;8.30;6.00;;;;;;;13.91;100.00;100790.00;5132416;27;20180;-72
2021/09/17 06:05:03;;;;;;;7.43;5.20;;;;;;;13.94;100.00;100806.63;5132255;27;20184;-72
2021/09/17 06:07:29;;;;;;;5.93;5.03;;;;;;;13.97;100.00;100786.75;5132298;27;20180;-72
2021/09/17 06:09:54;;;;;;;7.87;5.20;;;;;;;13.99;100.00;100791.91;5128868;27;20196;-74
2021/09/17 06:12:20;;;;;;;5.70;5.20;;;;;;;14.05;100.00;100796.13;5131091;27;20177;-73
2021/09/17 06:14:45;;;;;;;5.97;5.47;;;;;;;14.07;100.00;100793.03;5121702;27;20179;-73
2021/09/17 06:17:10;;;;;;;5.13;4.73;;;;;;;14.10;100.00;100789.63;5132024;27;20669;-73
2021/09/17 06:19:36;;;;;;;5.73;4.53;;;;;;;14.12;100.00;100810.16;5131950;27;20234;-73
2021/09/17 06:22:01;;;;;;;5.27;4.87;;;;;;;14.10;100.00;100804.19;5132089;27;20168;-73
2021/09/17 06:24:26;;;;;;;5.37;4.87;;;;;;;14.16;100.00;100808.34;5131821;27;20724;-73
2021/09/17 06:26:52;;;;;;;4.67;4.20;;;;;;;14.18;100.00;100808.06;5132034;27;20616;-73
2021/09/17 06:29:17;;;;;;;4.30;3.90;;;;;;;14.15;100.00;100809.50;5132211;27;20203;-73
2021/09/17 06:31:42;;;;;;;3.93;3.63;;;;;;;14.14;100.00;100805.13;5131939;27;20164;-72
2021/09/17 06:34:08;;;;;;;3.87;3.57;;;;;;;14.14;100.00;100809.81;5131567;27;20179;-73
2021/09/17 06:36:33;;;;;;;4.03;3.63;;;;;;;14.12;100.00;100810.16;5131830;27;20207;-73
2021/09/17 06:39:02;;;;;;;3.83;3.43;;;;;;;14.09;100.00;100808.06;5131819;27;20172;-73
2021/09/17 06:41:29;;;;;;;5.20;3.60;;;;;;;14.09;100.00;100799.00;5131815;27;20255;-73
2021/09/17 06:43:54;;;;;;;3.90;3.47;;;;;;;14.09;100.00;100796.28;5131644;27;20168;-74
2021/09/17 06:46:20;;;;;;;3.47;3.00;;;;;;;14.08;100.00;100795.47;5113283;27;20560;-73
2021/09/17 06:48:45;;;;;;;3.43;3.20;;;;;;;14.10;100.00;100800.63;5131619;27;20171;-75
2021/09/17 06:51:11;;;;;;;4.07;3.67;;;;;;;14.11;100.00;100794.81;5131778;27;20200;-75
2021/09/17 06:53:36;;;;;;;3.90;3.50;;;;;;;14.16;100.00;100799.31;5131606;27;20175;-77
2021/09/17 06:56:01;;;;;;;3.93;3.53;;;;;;;14.16;100.00;100794.63;5131369;27;20557;-78
2021/09/17 06:58:31;;;;;;;3.27;2.97;;;;;;;14.19;100.00;100790.44;5113411;28;20168;-76
2021/09/17 07:00:58;;;;;;;9.33;3.43;;;;;;;14.23;100.00;100792.19;5131574;28;20196;-74
2021/09/17 07:03:24;;;;;;;2.90;2.70;;;;;;;14.25;100.00;100792.66;5133643;27;20558;-75
2021/09/17 07:05:50;;;;;;;2.80;2.60;;;;;;;14.22;100.00;100793.31;5135651;27;20207;-75
2021/09/17 07:08:18;;;;;;;3.47;2.57;;;;;;;14.25;100.00;100800.91;5135831;27;20548;-72
2021/09/17 07:10:44;;;;;;;4.80;2.73;;;;;;;14.29;100.00;100795.56;5135739;27;20176;-72
2021/09/17 07:13:10;;;;;;;3.30;2.90;;;;;;;14.30;100.00;100792.47;5135632;27;20172;-72
2021/09/17 07:15:35;;;;;;;3.13;2.60;;;;;;;14.35;100.00;100804.47;5135384;27;20771;-73
2021/09/17 07:18:01;;;;;;;3.50;3.20;;;;;;;14.39;100.00;100797.16;5135636;27;20264;-72
2021/09/17 07:20:27;;;;;;;3.40;3.10;;;;;;;14.36;100.00;100797.81;5135385;27;20272;-73
2021/09/17 07:22:52;;;;;;;5.30;4.10;;;;;;;14.41;100.00;100801.19;5135271;27;20177;-73
2021/09/17 07:25:19;;;;;;;5.00;4.60;;;;;;;14.47;100.00;100807.38;5135069;27;20230;-73
2021/09/17 07:27:45;;;;;;;5.43;2.63;;;;;;;14.52;100.00;100799.72;5116657;27;20572;-73
2021/09/17 07:30:11;;;;;;;2.47;2.27;;;;;;;14.59;100.00;100807.47;5135238;27;20183;-72
2021/09/17 07:32:36;;;;;;;3.63;2.30;;;;;;;14.62;100.00;100803.28;5135085;27;20225;-72
2021/09/17 07:35:02;;;;;;;4.27;2.67;;;;;;;14.72;100.00;100800.94;5134946;27;20579;-72
2021/09/17 07:37:27;;;;;;;2.57;2.37;;;;;;;14.84;100.00;100814.81;5135049;27;20173;-73
2021/09/17 07:39:53;;;;;;;2.57;2.20;;;;;;;14.88;100.00;100812.19;5135137;27;20680;-73
2021/09/17 07:42:18;;;;;;;2.73;2.50;;;;;;;14.92;100.00;100807.66;5134857;27;20177;-73
2021/09/17 07:44:44;;;;;;;3.13;2.47;;;;;;;15.02;100.00;100821.03;5134843;27;20172;-73
2021/09/17 07:47:10;;;;;;;2.50;1.90;;;;;;;15.09;100.00;100806.75;5116599;27;20529;-73
2021/09/17 07:49:36;;;;;;;5.97;1.63;;;;;;;15.12;100.00;100814.34;5135123;27;20263;-73
2021/09/17 07:52:02;;;;;;;2.80;2.03;;;;;;;15.18;100.00;100813.00;5134340;27;20255;-72
2021/09/17 07:54:27;;;;;;;2.20;2.00;;;;;;;15.19;100.00;100817.38;5134465;27;20173;-72
2021/09/17 07:56:54;;;;;;;2.13;1.73;;;;;;;15.25;100.00;100812.47;5134727;27;20184;-73
2021/09/17 07:59:19;;;;;;;4.40;2.17;;;;;;;15.32;100.00;100815.50;5134696;27;20488;-72
2021/09/17 08:01:45;;;;;;;1.90;1.27;;;;;;;15.29;100.00;100814.22;5134711;27;20168;-73
2021/09/17 08:04:10;;;;;;;1.97;1.73;;;;;;;15.28;100.00;100812.63;5134336;27;20187;-73
2021/09/17 08:06:36;;;;;;;1.70;1.60;;;;;;;15.33;100.00;100812.41;5134462;27;20624;-73
2021/09/17 08:09:01;;;;;;;2.60;1.60;;;;;;;15.35;100.00;100809.34;5134433;27;20169;-76
2021/09/17 08:11:26;;;;;;;3.23;1.73;;;;;;;15.28;100.00;100811.81;5134383;27;20627;-74
2021/09/17 08:13:52;;;;;;;3.73;2.10;;;;;;;15.30;100.00;100806.78;5133599;27;20263;-73
2021/09/17 08:16:18;;;;;;;3.47;1.70;;;;;;;15.37;100.00;100807.88;5134233;27;20182;-73
2021/09/17 08:18:45;;;;;;;3.03;2.00;;;;;;;15.45;100.00;100803.44;5134222;27;20184;-73
2021/09/17 08:21:11;;;;;;;2.33;1.57;;;;;;;15.58;100.00;100807.06;5134545;27;20200;-74
2021/09/17 08:23:37;;;;;;;2.50;1.70;;;;;;;15.63;100.00;100810.47;5134021;27;20196;-73
2021/09/17 08:26:03;;;;;;;4.07;1.40;;;;;;;15.67;100.00;100811.41;5115478;27;20613;-74
2021/09/17 08:28:29;;;;;;;1.50;1.10;;;;;;;15.72;100.00;100818.63;5134195;27;20177;-74
2021/09/17 08:30:55;;;;;;;1.03;0.97;;;;;;;15.78;100.00;100811.81;5133937;27;20172;-73
2021/09/17 08:33:20;;;;;;;0.90;0.83;;;;;;;15.75;100.00;100818.75;5133882;27;20191;-73
2021/09/17 08:35:46;;;;;;;1.10;1.00;;;;;;;15.82;100.00;100811.94;5133567;27;20175;-73
2021/09/17 08:38:11;;;;;;;2.40;1.30;;;;;;;15.84;100.00;100813.19;5133804;27;20271;-73
2021/09/17 08:40:37;;;;;;;2.20;0.90;;;;;;;15.95;100.00;100813.59;5133928;27;20295;-73
2021/09/17 08:43:02;;;;;;;1.47;0.60;;;;;;;16.09;100.00;100814.09;5133778;27;20173;-73
2021/09/17 08:45:29;;;;;;;1.07;0.40;;;;;;;16.19;100.00;100810.09;5133417;27;20171;-74
2021/09/17 08:47:56;;;;;;;0.73;0.50;;;;;;;16.19;97.57;100805.38;5133586;27;20548;-74
2021/09/17 08:50:22;;;;;;;1.70;0.33;;;;;;;16.34;96.75;100801.16;5133158;27;20560;-73
2021/09/17 08:52:48;;;;;;;1.03;0.30;;;;;;;16.38;92.79;100796.59;5133804;27;20175;-73
2021/09/17 08:55:14;;;;;;;0.70;0.50;;;;;;;16.34;90.93;100801.16;5133117;27;20180;-73
2021/09/17 08:57:43;;;;;;;0.63;0.50;;;;;;;16.28;92.77;100808.88;5133539;27;20181;-73
2021/09/17 09:00:30;;;;;;;0.63;0.40;;;;;;;16.24;91.45;100802.44;5133411;27;20199;-74
2021/09/17 09:02:58;;;;;;;0.10;0.10;;;;;;;16.31;88.54;100797.16;5133050;27;20225;-73
2021/09/17 09:05:36;;;;;;;0.60;0.50;;;;;;;16.29;90.84;100801.41;5133429;27;20216;-73
2021/09/17 09:08:03;;;;;;;0.40;0.33;;;;;;;16.42;89.81;100799.47;5132322;27;20202;-73
2021/09/17 09:10:29;;;;;;;1.63;0.50;;;;;;;16.47;90.49;100799.25;5133060;27;20636;-74
2021/09/17 09:12:57;;;;;;;0.20;0.20;;;;;;;16.53;91.30;100800.66;5133657;27;20258;-73
2021/09/17 09:15:25;;;;;;;0.40;0.40;;;;;;;16.69;89.86;100803.56;5132648;27;20188;-73
2021/09/17 09:17:52;;;;;;;0.33;0.27;;;;;;;16.65;89.16;100806.19;5133139;27;20187;-74
2021/09/17 09:20:27;;;;;;;0.50;0.20;;;;;;;16.66;87.53;100794.00;5132888;27;20212;-73
2021/09/17 09:23:05;;;;;;;0.50;0.50;;;;;;;16.84;87.62;100802.91;5132927;27;20183;-73
2021/09/17 09:25:31;;;;;;;2.23;0.30;;;;;;;16.80;87.62;100790.94;5127405;27;20185;-74
2021/09/17 09:28:13;;;;;;;0.77;0.43;;;;;;;16.71;88.80;100787.47;5126919;27;20192;-73
2021/09/17 09:30:39;;;;;;;0.50;0.50;;;;;;;16.72;88.64;100789.88;5132398;27;20309;-73
2021/09/17 09:33:22;;;;;;;0.70;0.70;;;;;;;16.79;91.08;100784.63;5132732;27;20263;-73
2021/09/17 09:35:55;;;;;;;2.67;1.07;;;;;;;16.78;88.27;100773.91;5131707;27;20176;-73
2021/09/17 09:38:36;;;;;;;0.57;0.30;;;;;;;16.80;87.18;100782.66;5130808;27;20289;-73
2021/09/17 09:41:04;;;;;;;1.00;0.40;;;;;;;16.87;89.72;100785.63;5133009;27;20212;-73
2021/09/17 09:43:35;;;;;;;4.20;0.53;;;;;;;16.89;88.63;100789.66;5132533;27;20172;-74
2021/09/17 09:46:21;;;;;;;0.50;0.50;;;;;;;16.96;88.09;100783.56;5132550;27;20229;-73
2021/09/17 09:49:01;;;;;;;1.20;0.60;;;;;;;16.96;87.25;100778.06;5132451;27;20176;-73
2021/09/17 09:51:28;;;;;;;0.40;0.37;;;;;;;16.87;87.73;100780.91;5131964;27;20168;-74
2021/09/17 09:53:54;;;;;;;1.97;0.70;;;;;;;16.81;88.27;100779.56;5132020;27;20172;-73
2021/09/17 09:56:20;;;;;;;1.43;0.83;;;;;;;16.75;88.97;100777.34;5132177;27;20221;-73
2021/09/17 09:58:49;;;;;;;0.83;0.50;;;;;;;16.73;89.45;100774.13;5132306;27;20172;-73
2021/09/17 10:01:21;;;;;;;1.10;0.40;;;;;;;16.65;88.10;100790.44;5137650;27;20208;-73
2021/09/17 10:03:47;;;;;;;0.50;0.20;;;;;;;16.81;88.50;100781.50;5135021;27;20259;-73
2021/09/17 10:06:14;;;;;;;0.60;0.33;;;;;;;17.06;88.25;100777.56;5130473;27;20639;-73
2021/09/17 10:08:40;;;;;;;0.20;0.20;;;;;;;17.43;87.33;100786.59;5132399;27;20184;-73
2021/09/17 10:11:06;;;;;;;0.10;0.10;;;;;;;17.63;83.86;101041.78;5113725;27;20179;-73
2021/09/17 10:13:31;;;;;;;0.50;0.30;;;;;;;17.61;81.64;100924.47;5132334;27;20690;-73
2021/09/17 10:15:57;;;;;;;1.77;0.70;;;;;;;17.47;81.49;100773.69;5131540;27;20184;-73
2021/09/17 10:18:23;;;;;;;1.13;0.40;;;;;;;17.41;83.90;100771.53;5113306;27;20176;-73
2021/09/17 10:20:50;;;;;;;1.80;0.43;;;;;;;17.35;83.20;100767.38;5131940;27;20223;-73
2021/09/17 10:23:26;;;;;;;0.50;0.40;;;;;;;17.31;84.43;100766.47;5132306;27;20225;-73
2021/09/17 10:26:02;;;;;;;0.33;0.30;;;;;;;17.23;82.69;100771.00;5131324;27;20187;-73
2021/09/17 10:28:28;;;;;;;0.47;0.30;;;;;;;17.09;81.95;100768.59;5113355;27;20179;-73
2021/09/17 10:31:09;;;;;;;0.30;0.30;;;;;;;17.03;82.59;100763.66;5131652;27;20172;-73
2021/09/17 10:33:35;;;;;;;0.83;0.40;;;;;;;17.07;84.16;100773.69;5112994;27;20172;-73
2021/09/17 10:36:00;;;;;;;0.37;0.20;;;;;;;17.11;85.10;100757.22;5131544;27;20263;-73
2021/09/17 10:38:27;;;;;;;0.70;0.27;;;;;;;17.15;86.03;100767.22;5131289;27;20647;-73
2021/09/17 10:41:03;;;;;;;0.20;0.20;;;;;;;17.16;84.88;100766.06;5131392;27;20727;-73
2021/09/17 10:43:32;;;;;;;0.83;0.30;;;;;;;17.09;83.85;100768.59;5131541;27;20229;-73
2021/09/17 10:46:01;;;;;;;0.50;0.40;;;;;;;17.07;85.63;100768.16;5131165;27;20196;-73
2021/09/17 10:48:29;;;;;;;0.63;0.27;;;;;;;16.98;85.30;100761.94;5131413;27;20168;-73
2021/09/17 10:51:04;;;;;;;0.20;0.20;;;;;;;16.92;86.13;100769.66;5130900;27;20199;-73
2021/09/17 10:53:41;;;;;;;0.23;0.20;;;;;;;16.95;87.01;100752.41;5131337;27;20176;-73
2021/09/17 10:56:13;;;;;;;0.47;0.33;;;;;;;16.97;87.24;100759.53;5130783;27;20169;-73
2021/09/17 10:58:40;;;;;;;0.83;0.70;;;;;;;17.00;88.13;100762.41;5131302;28;20180;-73
2021/09/17 11:01:15;;;;;;;1.17;0.70;;;;;;;17.08;88.70;100752.41;5131451;28;20200;-73
2021/09/17 11:03:40;;;;;;;0.70;0.40;;;;;;;17.17;87.60;100759.38;5130609;28;20191;-73
2021/09/17 11:06:18;;;;;;;1.07;0.37;;;;;;;17.16;86.34;100759.72;5131066;28;20180;-73
2021/09/17 11:09:00;;;;;;;0.90;0.50;;;;;;;17.20;87.84;100753.16;5131323;27;20180;-72
2021/09/17 11:11:27;;;;;;;0.67;0.67;;;;;;;17.31;90.17;100759.00;5131358;27;20628;-73
2021/09/17 11:13:58;;;;;;;1.87;0.80;;;;;;;17.38;88.85;100758.44;5130951;28;20175;-73
2021/09/17 11:16:25;;;;;;;0.70;0.70;;;;;;;17.42;88.53;100753.81;5131665;28;20199;-72